Time;durP1;ratioP1;P1;durP2;ratioP2;P2;SDS_P1;SDS_P2;PMS_P1;PMS_P2;Temp;Humidity;BMP_temperature;BMP_pressure;BME280_temperature;BME280_humidity;BME280_pressure;Samples;Min_cycle;Max_cycle;Signal;HPM_P1;HPM_P2
2022/05/31 00:01:33;;;;;;;0.32;0.32;;;19.40;54.90;;;;;;5070215;28;43468;-61
2022/05/31 00:04:01;;;;;;;0.40;0.40;;;19.40;55.00;;;;;;5068135;28;43600;-61
2022/05/31 00:06:28;;;;;;;0.50;0.50;;;19.40;54.90;;;;;;5067954;28;44004;-61
2022/05/31 00:08:56;;;;;;;0.50;0.50;;;19.40;55.00;;;;;;5025609;28;1250102;-62
2022/05/31 00:11:23;;;;;;;0.50;0.50;;;19.30;55.00;;;;;;5071025;28;43478;-61
2022/05/31 00:13:51;;;;;;;0.63;0.63;;;19.40;55.00;;;;;;5071536;28;44084;-61
2022/05/31 00:16:19;;;;;;;0.50;0.50;;;19.30;54.90;;;;;;5079358;28;44654;-61
2022/05/31 00:18:47;;;;;;;0.40;0.40;;;19.30;54.90;;;;;;5070307;28;43949;-61
2022/05/31 00:21:14;;;;;;;0.30;0.30;;;19.30;55.00;;;;;;5071894;28;43471;-61
2022/05/31 00:23:42;;;;;;;0.50;0.50;;;19.30;55.00;;;;;;5075523;28;43444;-61
2022/05/31 00:26:10;;;;;;;0.40;0.40;;;19.30;55.00;;;;;;5079495;28;43561;-61
2022/05/31 00:28:37;;;;;;;0.30;0.30;;;19.30;55.00;;;;;;5070279;28;43638;-61
2022/05/31 00:31:07;;;;;;;0.55;0.52;;;19.30;55.00;;;;;;5070241;28;43497;-61
2022/05/31 00:33:35;;;;;;;0.30;0.30;;;19.30;55.00;;;;;;5074463;28;43479;-61
2022/05/31 00:36:04;;;;;;;0.47;0.47;;;19.30;55.00;;;;;;5079647;28;44705;-61
2022/05/31 00:38:31;;;;;;;0.40;0.40;;;19.30;55.00;;;;;;5051291;28;43759;-61
2022/05/31 00:41:23;;;;;;;0.40;0.40;;;19.30;55.00;;;;;;5080727;28;43389;-61
2022/05/31 00:43:59;;;;;;;0.73;0.40;;;19.20;55.00;;;;;;5060530;28;43487;-61
2022/05/31 00:46:51;;;;;;;0.30;0.30;;;19.20;55.00;;;;;;5071643;28;44856;-61
2022/05/31 00:49:35;;;;;;;0.50;0.50;;;19.20;55.70;;;;;;5073201;28;43818;-61
2022/05/31 00:52:09;;;;;;;0.50;0.50;;;19.20;55.00;;;;;;5069831;28;43438;-61
2022/05/31 00:54:49;;;;;;;0.30;0.30;;;19.20;55.00;;;;;;5061962;28;43501;-61
2022/05/31 00:57:17;;;;;;;0.20;0.20;;;19.20;55.00;;;;;;5056158;28;44957;-61
2022/05/31 00:59:51;;;;;;;0.30;0.30;;;19.20;55.00;;;;;;5058781;28;43493;-61
2022/05/31 01:02:19;;;;;;;0.57;0.40;;;19.20;55.00;;;;;;5078940;28;43448;-61
2022/05/31 01:04:58;;;;;;;0.32;0.30;;;19.20;55.00;;;;;;5068592;28;43439;-61
2022/05/31 01:07:26;;;;;;;0.30;0.30;;;19.20;55.10;;;;;;5068498;28;44980;-61
2022/05/31 01:09:54;;;;;;;0.47;0.47;;;19.20;55.10;;;;;;5045770;28;44137;-61
2022/05/31 01:12:46;;;;;;;0.43;0.43;;;19.10;55.00;;;;;;5038805;28;43583;-61
2022/05/31 01:15:47;;;;;;;0.40;0.40;;;19.10;55.10;;;;;;5036887;28;43750;-61
2022/05/31 01:18:33;;;;;;;0.32;0.32;;;19.10;55.10;;;;;;5067823;28;43943;-61
2022/05/31 01:21:19;;;;;;;0.50;0.50;;;19.10;55.10;;;;;;5072147;28;43458;-61
2022/05/31 01:24:12;;;;;;;1.10;0.40;;;19.10;55.10;;;;;;5061657;28;43439;-61
2022/05/31 01:26:46;;;;;;;0.35;0.35;;;19.10;55.10;;;;;;5066969;28;43446;-61
2022/05/31 01:29:31;;;;;;;0.50;0.50;;;19.10;55.10;;;;;;5067858;28;43811;-61
2022/05/31 01:32:02;;;;;;;0.35;0.35;;;19.10;55.20;;;;;;5082800;27;43422;-61
2022/05/31 01:34:57;;;;;;;0.70;0.70;;;19.10;55.20;;;;;;5071116;28;43372;-61
2022/05/31 01:37:35;;;;;;;0.30;0.30;;;19.00;55.10;;;;;;5070282;28;43501;-61
2022/05/31 01:40:09;;;;;;;0.32;0.32;;;19.00;55.20;;;;;;5068167;28;43793;-61
2022/05/31 01:42:40;;;;;;;0.30;0.30;;;19.00;55.20;;;;;;5070713;28;43960;-61
2022/05/31 01:45:31;;;;;;;0.40;0.40;;;19.00;55.20;;;;;;5080603;28;44097;-61
2022/05/31 01:48:02;;;;;;;0.45;0.45;;;19.00;55.20;;;;;;5056954;28;43498;-61
2022/05/31 01:50:31;;;;;;;0.38;0.38;;;19.00;55.20;;;;;;5072549;28;44977;-61
2022/05/31 01:52:59;;;;;;;0.30;0.30;;;19.00;55.20;;;;;;5071532;28;43422;-61
2022/05/31 01:55:28;;;;;;;0.30;0.30;;;19.00;55.20;;;;;;5079432;28;44142;-61
2022/05/31 01:57:59;;;;;;;0.20;0.20;;;19.00;55.20;;;;;;5064847;28;43567;-61
2022/05/31 02:00:27;;;;;;;0.43;0.43;;;19.00;55.20;;;;;;5053895;28;43902;-61
2022/05/31 02:02:59;;;;;;;0.32;0.32;;;19.00;55.20;;;;;;5069070;28;43477;-61
2022/05/31 02:05:27;;;;;;;0.30;0.30;;;19.00;55.20;;;;;;5067887;28;43558;-61
2022/05/31 02:08:00;;;;;;;0.30;0.30;;;19.00;55.30;;;;;;5055803;28;43448;-60
2022/05/31 02:10:32;;;;;;;0.45;0.45;;;18.90;55.20;;;;;;5051521;28;43787;-61
2022/05/31 02:13:03;;;;;;;0.20;0.20;;;18.90;55.20;;;;;;5055892;28;43502;-61
2022/05/31 02:15:33;;;;;;;0.30;0.30;;;18.90;55.30;;;;;;5061192;28;44322;-62
2022/05/31 02:18:22;;;;;;;0.30;0.30;;;18.90;55.30;;;;;;5069950;28;43583;-61
2022/05/31 02:20:56;;;;;;;0.40;0.40;;;18.90;55.30;;;;;;5070732;28;44118;-61
2022/05/31 02:23:24;;;;;;;0.40;0.40;;;18.90;55.30;;;;;;5070179;28;43449;-61
2022/05/31 02:25:51;;;;;;;0.47;0.40;;;18.90;55.40;;;;;;5075012;28;43482;-61
2022/05/31 02:28:18;;;;;;;0.40;0.40;;;18.90;55.30;;;;;;5067750;28;43571;-61
2022/05/31 02:30:53;;;;;;;0.40;0.40;;;18.90;55.40;;;;;;5062466;28;44198;-61
2022/05/31 02:33:21;;;;;;;0.55;0.38;;;18.90;55.40;;;;;;5049564;28;43692;-61
2022/05/31 02:35:48;;;;;;;0.40;0.40;;;18.80;55.40;;;;;;5076555;28;43976;-61
2022/05/31 02:38:18;;;;;;;0.30;0.30;;;18.80;55.30;;;;;;5060998;28;43538;-61
2022/05/31 02:40:46;;;;;;;0.47;0.47;;;18.80;55.30;;;;;;5049047;28;43934;-61
2022/05/31 02:43:14;;;;;;;0.38;0.38;;;18.80;55.30;;;;;;5054567;28;43657;-61
2022/05/31 02:45:41;;;;;;;0.40;0.40;;;18.80;55.40;;;;;;5061228;28;43551;-61
2022/05/31 02:48:09;;;;;;;0.40;0.40;;;18.80;55.40;;;;;;5060837;28;43452;-61
2022/05/31 02:50:40;;;;;;;0.82;0.50;;;18.80;55.40;;;;;;5062902;28;44008;-61
2022/05/31 02:53:07;;;;;;;0.50;0.50;;;18.80;55.40;;;;;;5054999;28;43951;-61
2022/05/31 02:55:35;;;;;;;0.30;0.30;;;18.80;55.40;;;;;;5068890;28;43455;-61
2022/05/31 02:58:40;;;;;;;0.60;0.60;;;18.80;55.40;;;;;;5071075;28;43543;-61
2022/05/31 03:01:23;;;;;;;0.50;0.50;;;18.80;55.40;;;;;;5073225;28;45015;-61
2022/05/31 03:04:11;;;;;;;0.45;0.45;;;18.80;55.50;;;;;;5073990;28;44048;-61
2022/05/31 03:07:01;;;;;;;0.47;0.47;;;18.70;55.40;;;;;;5070324;28;43583;-61
2022/05/31 03:09:32;;;;;;;0.40;0.40;;;18.70;55.40;;;;;;5060091;28;43522;-61
2022/05/31 03:12:09;;;;;;;0.30;0.30;;;18.80;55.50;;;;;;5072374;28;45030;-61
2022/05/31 03:14:44;;;;;;;0.50;0.50;;;18.80;55.50;;;;;;5060484;28;44010;-61
2022/05/31 03:17:28;;;;;;;0.60;0.60;;;18.70;55.40;;;;;;5070119;28;43517;-61
2022/05/31 03:20:15;;;;;;;0.50;0.50;;;18.80;55.50;;;;;;5081272;28;43534;-61
2022/05/31 03:22:54;;;;;;;0.60;0.60;;;18.70;55.40;;;;;;5070194;28;44969;-61
2022/05/31 03:25:25;;;;;;;0.50;0.50;;;18.70;55.50;;;;;;5069897;28;43793;-61
2022/05/31 03:27:57;;;;;;;0.57;0.40;;;18.70;55.50;;;;;;5073043;28;43435;-61
2022/05/31 03:30:24;;;;;;;0.40;0.40;;;18.70;55.50;;;;;;5070234;28;43540;-61
2022/05/31 03:32:55;;;;;;;0.40;0.40;;;18.70;55.50;;;;;;5069666;28;44672;-61
2022/05/31 03:35:23;;;;;;;0.30;0.30;;;18.70;55.50;;;;;;5070333;28;43484;-61
2022/05/31 03:37:53;;;;;;;0.60;0.60;;;18.70;55.50;;;;;;5068395;28;43409;-60
2022/05/31 03:43:23;;;;;;;0.43;0.40;;;18.70;55.50;;;;;;5070633;28;43747;-61
2022/05/31 03:46:15;;;;;;;0.40;0.40;;;18.60;55.70;;;;;;5060008;28;43520;-61
2022/05/31 03:49:01;;;;;;;0.40;0.40;;;18.60;55.50;;;;;;5072922;28;43521;-61
2022/05/31 03:51:49;;;;;;;0.47;0.47;;;18.60;55.50;;;;;;5055840;28;43609;-61
2022/05/31 03:54:26;;;;;;;0.30;0.30;;;18.60;55.50;;;;;;5069514;28;44392;-61
2022/05/31 03:57:18;;;;;;;0.43;0.43;;;18.60;55.50;;;;;;5072333;28;43817;-61
2022/05/31 04:00:03;;;;;;;0.60;0.60;;;18.60;55.50;;;;;;5051495;28;43512;-61
2022/05/31 04:02:44;;;;;;;0.45;0.45;;;18.60;55.50;;;;;;5069719;28;43602;-61
2022/05/31 04:05:13;;;;;;;0.40;0.40;;;18.60;55.60;;;;;;5054622;28;45093;-61
2022/05/31 04:07:41;;;;;;;0.52;0.52;;;18.60;55.50;;;;;;5052391;28;43517;-61
2022/05/31 04:10:10;;;;;;;0.50;0.50;;;18.60;55.50;;;;;;5050644;28;43527;-61
2022/05/31 04:12:39;;;;;;;0.40;0.40;;;18.60;55.50;;;;;;5058798;28;43514;-61
2022/05/31 04:15:27;;;;;;;0.60;0.60;;;18.60;55.50;;;;;;5040507;28;44039;-61
2022/05/31 04:17:55;;;;;;;0.40;0.40;;;18.60;55.50;;;;;;5073831;28;43432;-61
2022/05/31 04:20:22;;;;;;;0.40;0.40;;;18.60;55.50;;;;;;5042325;28;43414;-61
2022/05/31 04:22:50;;;;;;;1.52;0.60;;;18.60;55.50;;;;;;5064481;28;43494;-61
2022/05/31 04:25:36;;;;;;;0.40;0.40;;;18.60;55.50;;;;;;5066049;28;45010;-61
2022/05/31 04:28:26;;;;;;;0.47;0.47;;;18.60;55.60;;;;;;5051788;28;44146;-61
2022/05/31 04:31:13;;;;;;;0.60;0.60;;;18.60;55.50;;;;;;5069120;28;43394;-61
2022/05/31 04:34:15;;;;;;;0.40;0.40;;;18.60;55.60;;;;;;5002189;28;43438;-61
2022/05/31 04:36:43;;;;;;;0.40;0.40;;;18.60;55.50;;;;;;5055964;28;43864;-61
2022/05/31 04:39:11;;;;;;;0.40;0.40;;;18.60;55.60;;;;;;5050948;28;43872;-60
2022/05/31 04:41:42;;;;;;;0.50;0.50;;;18.60;55.60;;;;;;5075318;28;43442;-61
2022/05/31 04:44:16;;;;;;;0.40;0.40;;;18.60;55.70;;;;;;5044306;28;43472;-61
2022/05/31 04:46:44;;;;;;;0.60;0.60;;;18.50;55.50;;;;;;5064334;28;44955;-61
2022/05/31 04:49:16;;;;;;;0.50;0.50;;;18.50;55.60;;;;;;5058354;28;43442;-61
2022/05/31 04:51:44;;;;;;;0.77;0.73;;;18.50;55.60;;;;;;5034073;28;43428;-61
2022/05/31 04:54:17;;;;;;;0.40;0.40;;;18.60;55.70;;;;;;5063742;28;43428;-61
2022/05/31 04:57:00;;;;;;;0.60;0.60;;;18.50;55.60;;;;;;5080848;28;44041;-61
2022/05/31 04:59:29;;;;;;;0.40;0.40;;;18.50;55.50;;;;;;5056420;28;43708;-61
2022/05/31 05:01:57;;;;;;;1.27;0.80;;;18.50;55.50;;;;;;5069183;28;43459;-61
2022/05/31 05:04:36;;;;;;;0.77;0.77;;;18.50;55.50;;;;;;5062680;28;43514;-61
2022/05/31 05:07:04;;;;;;;0.82;0.60;;;18.60;55.50;;;;;;5062711;28;45015;-61
2022/05/31 05:09:32;;;;;;;0.55;0.55;;;18.50;55.60;;;;;;5058229;28;43947;-61
2022/05/31 05:12:18;;;;;;;0.50;0.50;;;18.50;55.50;;;;;;5070404;28;43503;-61
2022/05/31 05:14:50;;;;;;;0.60;0.60;;;18.50;55.60;;;;;;5056560;28;43462;-61
2022/05/31 05:17:23;;;;;;;0.60;0.60;;;18.50;55.60;;;;;;5057941;28;43806;-60
2022/05/31 05:19:51;;;;;;;0.75;0.75;;;18.50;55.60;;;;;;5069786;28;44283;-61
2022/05/31 05:22:19;;;;;;;0.50;0.50;;;18.50;55.60;;;;;;5076653;27;43455;-61
2022/05/31 05:24:46;;;;;;;0.50;0.50;;;18.50;55.60;;;;;;5073684;27;43494;-61
2022/05/31 05:27:29;;;;;;;0.50;0.50;;;18.50;55.60;;;;;;5069991;28;44796;-61
2022/05/31 05:33:29;;;;;;;0.60;0.60;;;18.50;56.20;;;;;;5037793;28;43452;-61
2022/05/31 05:36:22;;;;;;;;;;;18.50;55.80;;;;;;5062685;28;43577;-60
2022/05/31 05:38:52;;;;;;;0.70;0.52;;;18.50;55.70;;;;;;5060277;28;44992;-61
2022/05/31 05:41:41;;;;;;;0.75;0.75;;;18.50;55.80;;;;;;5081698;28;43974;-61
2022/05/31 05:44:41;;;;;;;0.70;0.70;;;18.50;55.80;;;;;;5067587;28;43413;-61
2022/05/31 05:47:14;;;;;;;1.10;0.90;;;18.40;55.80;;;;;;5052947;28;43558;-61
2022/05/31 05:49:42;;;;;;;;;;;18.40;55.80;;;;;;5072095;28;44636;-61
2022/05/31 05:52:29;;;;;;;0.73;0.63;;;18.40;55.80;;;;;;5067893;28;43471;-61
2022/05/31 05:55:16;;;;;;;0.50;0.50;;;18.40;55.90;;;;;;5070887;28;43459;-61
2022/05/31 05:58:03;;;;;;;0.75;0.75;;;18.40;55.80;;;;;;5081361;28;43591;-61
2022/05/31 06:00:52;;;;;;;0.60;0.60;;;18.40;55.80;;;;;;5080404;28;44387;-61
2022/05/31 06:03:35;;;;;;;1.10;0.60;;;18.40;55.90;;;;;;5067921;28;43451;-61
2022/05/31 06:06:05;;;;;;;0.50;0.50;;;18.50;56.00;;;;;;5074169;27;43482;-61
2022/05/31 06:08:38;;;;;;;0.80;0.80;;;18.40;55.80;;;;;;5053056;28;43555;-61
2022/05/31 06:11:08;;;;;;;1.05;0.60;;;18.50;55.90;;;;;;5078933;28;43837;-61
2022/05/31 06:13:44;;;;;;;0.60;0.60;;;18.40;55.90;;;;;;5055166;28;43966;-61
2022/05/31 06:16:13;;;;;;;1.00;0.65;;;18.40;55.90;;;;;;5049353;28;43399;-61
2022/05/31 06:18:51;;;;;;;0.70;0.70;;;18.40;55.90;;;;;;5062078;28;43803;-60
2022/05/31 06:21:21;;;;;;;0.70;0.70;;;18.40;55.90;;;;;;5061098;28;43982;-61
2022/05/31 06:23:51;;;;;;;0.50;0.50;;;18.40;56.00;;;;;;5062582;28;43915;-61
2022/05/31 06:26:18;;;;;;;0.40;0.40;;;18.40;56.00;;;;;;5066353;28;43514;-61
2022/05/31 06:28:56;;;;;;;0.63;0.63;;;18.50;56.00;;;;;;5058005;28;44078;-62
2022/05/31 06:31:23;;;;;;;1.15;0.45;;;18.40;56.00;;;;;;5067355;28;44995;-61
2022/05/31 06:33:51;;;;;;;0.50;0.50;;;18.40;56.10;;;;;;5067181;28;44246;-61
2022/05/31 06:36:25;;;;;;;0.50;0.50;;;18.40;56.00;;;;;;5052365;28;43422;-61
2022/05/31 06:38:53;;;;;;;0.85;0.60;;;18.40;56.10;;;;;;5072881;28;43580;-62
2022/05/31 06:41:20;;;;;;;1.00;0.85;;;18.40;56.10;;;;;;5081969;28;44718;-61
2022/05/31 06:44:06;;;;;;;0.52;0.52;;;18.50;56.10;;;;;;5079119;28;43395;-61
2022/05/31 06:46:52;;;;;;;0.60;0.60;;;18.50;56.10;;;;;;5070384;28;43397;-61
2022/05/31 06:49:39;;;;;;;0.80;0.80;;;18.50;56.10;;;;;;5079287;28;43558;-61
2022/05/31 06:58:32;;;;;;;0.70;0.70;;;18.50;56.10;;;;;;5081363;28;43543;-61
2022/05/31 07:01:06;;;;;;;0.50;0.50;;;18.50;56.10;;;;;;5069707;28;43487;-61
2022/05/31 07:03:36;;;;;;;0.50;0.50;;;18.50;56.10;;;;;;5080864;28;43790;-61
2022/05/31 07:06:04;;;;;;;0.60;0.60;;;18.50;56.10;;;;;;5069577;28;43951;-61
2022/05/31 07:08:31;;;;;;;0.50;0.50;;;18.50;56.10;;;;;;5069529;28;43405;-61
2022/05/31 07:11:00;;;;;;;0.68;0.68;;;18.50;56.00;;;;;;5069852;28;43467;-61
2022/05/31 07:13:47;;;;;;;0.50;0.50;;;18.50;56.00;;;;;;5069776;28;43574;-61
2022/05/31 07:16:35;;;;;;;0.47;0.47;;;18.50;56.00;;;;;;5065185;28;43693;-61
2022/05/31 07:19:27;;;;;;;0.63;0.50;;;18.50;56.00;;;;;;5062764;28;43471;-61
2022/05/31 07:22:15;;;;;;;0.50;0.50;;;18.50;56.00;;;;;;5067656;28;43528;-61
2022/05/31 07:24:45;;;;;;;0.60;0.60;;;18.50;56.00;;;;;;5077096;28;43946;-61
2022/05/31 07:27:20;;;;;;;0.57;0.57;;;18.50;56.00;;;;;;5061892;28;43424;-61
2022/05/31 07:29:49;;;;;;;0.60;0.60;;;18.50;56.00;;;;;;5056340;28;43502;-61
2022/05/31 07:32:17;;;;;;;0.50;0.50;;;18.50;55.90;;;;;;5062287;28;43686;-61
2022/05/31 07:35:05;;;;;;;0.93;0.70;;;18.50;55.90;;;;;;5051546;28;44958;-61
2022/05/31 07:37:35;;;;;;;0.50;0.50;;;18.50;55.90;;;;;;5063117;28;44059;-61
2022/05/31 07:40:04;;;;;;;0.60;0.60;;;18.50;55.90;;;;;;5054995;28;43492;-62
2022/05/31 07:42:33;;;;;;;3.13;2.25;;;18.50;56.00;;;;;;5068017;28;43432;-60
2022/05/31 07:45:01;;;;;;;2.70;2.50;;;18.50;56.10;;;;;;5062069;28;44824;-60
2022/05/31 07:47:30;;;;;;;3.10;2.90;;;18.50;56.20;;;;;;5053255;28;43440;-62
2022/05/31 07:49:57;;;;;;;2.80;2.60;;;18.60;56.30;;;;;;5064303;28;43423;-60
2022/05/31 07:52:42;;;;;;;4.20;3.33;;;18.60;56.20;;;;;;5051582;28;43558;-60
2022/05/31 07:55:59;;;;;;;4.30;3.40;;;18.60;56.20;;;;;;5036232;28;44775;-62
2022/05/31 07:58:46;;;;;;;3.95;3.45;;;18.70;56.30;;;;;;5026266;28;43505;-63
2022/05/31 08:01:43;;;;;;;6.60;4.07;;;18.70;56.20;;;;;;5000609;28;44208;-62
2022/05/31 08:04:38;;;;;;;3.63;3.33;;;18.80;56.40;;;;;;5060133;28;43562;-62
2022/05/31 08:07:05;;;;;;;5.28;3.30;;;19.00;56.40;;;;;;5070303;28;44725;-61
2022/05/31 08:09:33;;;;;;;4.38;3.30;;;19.10;56.30;;;;;;5068625;28;43529;-62
2022/05/31 08:12:00;;;;;;;3.83;3.03;;;19.20;56.10;;;;;;5069642;28;43534;-60
2022/05/31 08:14:27;;;;;;;2.85;2.60;;;19.40;56.00;;;;;;5081867;28;43999;-61
2022/05/31 08:16:55;;;;;;;3.78;2.90;;;19.50;55.70;;;;;;5069831;28;44691;-61
2022/05/31 08:19:23;;;;;;;3.47;2.60;;;19.60;55.60;;;;;;5082461;28;43418;-61
2022/05/31 08:21:50;;;;;;;3.30;2.60;;;19.80;55.50;;;;;;5062813;28;43505;-61
2022/05/31 08:24:18;;;;;;;2.65;2.45;;;19.90;55.30;;;;;;5082378;28;43471;-63
2022/05/31 08:27:06;;;;;;;2.80;2.30;;;20.00;55.10;;;;;;5069595;28;43820;-61
2022/05/31 08:29:34;;;;;;;2.58;2.30;;;20.20;55.00;;;;;;5069208;28;43457;-61
2022/05/31 08:32:01;;;;;;;5.65;2.50;;;20.30;54.80;;;;;;5069483;28;43479;-62
2022/05/31 08:34:29;;;;;;;4.78;2.70;;;20.40;54.90;;;;;;5081606;28;43605;-62
2022/05/31 08:36:57;;;;;;;5.63;2.50;;;20.50;55.30;;;;;;5078860;28;44167;-63
2022/05/31 08:39:25;;;;;;;3.60;2.30;;;20.60;55.20;;;;;;5076088;28;43977;-61
2022/05/31 08:42:03;;;;;;;2.08;1.98;;;20.60;54.70;;;;;;5080062;28;43474;-60
2022/05/31 08:44:42;;;;;;;4.15;1.98;;;20.70;54.60;;;;;;5070569;28;43553;-61
2022/05/31 08:47:36;;;;;;;4.82;2.00;;;20.80;54.70;;;;;;5075784;28;44977;-62
2022/05/31 08:53:26;;;;;;;3.55;2.10;;;21.00;54.50;;;;;;5065997;28;43458;-60
2022/05/31 08:59:06;;;;;;;2.38;2.15;;;21.20;54.40;;;;;;5056317;28;44949;-61
2022/05/31 09:01:42;;;;;;;3.25;1.55;;;21.30;54.00;;;;;;5068392;28;43661;-61
2022/05/31 09:04:35;;;;;;;1.98;1.67;;;21.40;54.00;;;;;;5070343;28;43567;-62
2022/05/31 09:07:06;;;;;;;2.05;1.73;;;21.50;54.10;;;;;;5068122;28;43582;-62
2022/05/31 09:09:48;;;;;;;3.47;1.90;;;21.60;53.80;;;;;;5068313;28;44700;-62
2022/05/31 09:12:38;;;;;;;4.18;1.83;;;21.70;53.00;;;;;;5071469;28;43511;-61
2022/05/31 09:15:34;;;;;;;3.17;1.50;;;21.80;52.90;;;;;;5072249;28;43549;-62
2022/05/31 09:18:38;;;;;;;2.28;1.75;;;21.90;52.70;;;;;;5079864;28;43428;-62
2022/05/31 09:21:22;;;;;;;1.50;1.40;;;21.90;52.50;;;;;;5072989;28;44172;-62
2022/05/31 09:23:50;;;;;;;1.60;1.50;;;22.00;52.50;;;;;;5079593;28;43438;-61
2022/05/31 09:26:46;;;;;;;3.30;1.35;;;22.00;52.40;;;;;;5067675;28;43526;-61
2022/05/31 09:29:33;;;;;;;1.85;1.15;;;22.00;52.30;;;;;;5068670;28;43538;-62
2022/05/31 09:32:25;;;;;;;1.75;1.17;;;22.10;52.40;;;;;;5078577;28;44040;-62
2022/05/31 09:35:02;;;;;;;2.28;1.30;;;22.00;52.20;;;;;;5067290;28;44172;-62
2022/05/31 09:37:47;;;;;;;2.60;1.10;;;22.00;52.40;;;;;;5078895;28;43502;-62
2022/05/31 09:40:46;;;;;;;1.02;1.02;;;22.00;52.40;;;;;;5075355;28;43514;-63
2022/05/31 09:43:36;;;;;;;1.27;1.17;;;22.00;52.40;;;;;;5080238;28;43780;-62
2022/05/31 09:46:08;;;;;;;2.67;1.23;;;22.00;52.40;;;;;;5067433;28;43548;-62
2022/05/31 09:48:46;;;;;;;1.10;1.00;;;21.90;52.40;;;;;;5073859;28;43503;-62
2022/05/31 09:51:23;;;;;;;1.20;1.10;;;21.80;52.40;;;;;;5080908;28;44264;-62
2022/05/31 09:57:06;;;;;;;1.75;1.10;;;21.80;52.70;;;;;;5069652;28;44098;-62
2022/05/31 10:00:03;;;;;;;2.50;1.05;;;21.70;52.70;;;;;;5065794;28;43388;-62
2022/05/31 10:03:04;;;;;;;4.25;1.10;;;21.70;53.00;;;;;;5068976;28;43469;-62
2022/05/31 10:05:32;;;;;;;1.15;0.90;;;21.60;52.90;;;;;;5067561;28;43779;-63
2022/05/31 10:08:01;;;;;;;3.40;0.98;;;21.60;52.90;;;;;;5074536;28;43442;-63
2022/05/31 10:10:33;;;;;;;1.65;1.13;;;21.50;53.30;;;;;;5070204;28;43515;-63
2022/05/31 10:13:04;;;;;;;2.20;1.05;;;21.50;53.50;;;;;;5076821;28;43562;-62
2022/05/31 10:15:37;;;;;;;0.80;0.80;;;21.50;53.40;;;;;;5071186;28;43817;-62
2022/05/31 10:18:09;;;;;;;1.42;1.00;;;21.40;53.60;;;;;;5081475;28;43497;-63
2022/05/31 10:20:37;;;;;;;2.10;0.93;;;21.40;53.60;;;;;;5062692;28;43478;-62
2022/05/31 10:23:15;;;;;;;0.93;0.80;;;21.40;53.60;;;;;;5080285;28;43596;-62
2022/05/31 10:26:01;;;;;;;1.67;1.00;;;21.40;53.60;;;;;;5061320;28;44067;-62
2022/05/31 10:29:29;;;;;;;1.45;0.98;;;21.40;53.60;;;;;;5036401;28;43538;-62
2022/05/31 10:32:42;;;;;;;1.67;0.90;;;21.40;53.60;;;;;;5034833;28;43607;-62
2022/05/31 10:35:25;;;;;;;1.23;1.00;;;21.40;53.80;;;;;;5055654;28;43435;-62
2022/05/31 10:38:04;;;;;;;1.95;0.68;;;21.30;53.80;;;;;;5078306;28;43888;-62
2022/05/31 10:40:49;;;;;;;3.45;1.08;;;21.30;53.70;;;;;;5077643;28;43581;-62
2022/05/31 10:43:38;;;;;;;1.08;0.93;;;21.30;53.80;;;;;;5066758;28;43471;-62
2022/05/31 11:00:55;;;;;;;1.67;1.02;;;21.30;53.30;;;;;;5097604;27;43528;-64
2022/05/31 11:03:30;;;;;;;0.93;0.73;;;21.50;53.20;;;;;;5081775;27;43471;-63
2022/05/31 11:06:18;;;;;;;0.88;0.88;;;21.40;53.60;;;;;;5094515;27;43528;-62
2022/05/31 11:11:55;;;;;;;1.17;0.95;;;21.20;53.90;;;;;;5064165;28;45042;-63
2022/05/31 11:14:37;;;;;;;1.20;1.10;;;21.20;53.90;;;;;;5091476;27;43538;-63
2022/05/31 11:17:05;;;;;;;2.65;1.20;;;21.10;53.90;;;;;;5081433;27;43868;-63
2022/05/31 11:19:51;;;;;;;2.47;1.23;;;21.10;53.90;;;;;;5091352;27;43510;-63
2022/05/31 11:22:28;;;;;;;1.55;1.10;;;21.00;53.80;;;;;;5091396;27;44966;-63
2022/05/31 11:25:23;;;;;;;1.98;1.25;;;21.00;54.00;;;;;;5096885;27;43966;-63
2022/05/31 11:28:09;;;;;;;2.15;1.10;;;20.90;53.90;;;;;;5087554;27;43421;-63
2022/05/31 11:31:03;;;;;;;2.17;1.40;;;20.90;54.00;;;;;;5126964;27;43785;-63
2022/05/31 11:33:52;;;;;;;1.95;1.38;;;20.90;53.90;;;;;;5066340;27;44210;-62
2022/05/31 11:36:56;;;;;;;2.40;1.20;;;20.80;53.50;;;;;;5082373;27;43505;-62
2022/05/31 11:39:42;;;;;;;2.05;1.00;;;20.80;53.70;;;;;;5074392;27;43476;-63
2022/05/31 11:42:37;;;;;;;1.50;1.00;;;20.80;53.80;;;;;;5083029;27;43560;-62
2022/05/31 11:45:35;;;;;;;1.30;0.90;;;20.80;53.80;;;;;;5071996;27;43802;-63
2022/05/31 11:48:24;;;;;;;1.15;1.05;;;20.80;53.80;;;;;;5082742;27;43514;-63
2022/05/31 11:51:09;;;;;;;2.50;1.05;;;20.70;53.80;;;;;;5069845;27;43504;-63
2022/05/31 11:53:59;;;;;;;1.35;1.08;;;20.80;53.90;;;;;;5085075;27;43607;-63
2022/05/31 11:56:45;;;;;;;1.92;1.13;;;20.70;53.90;;;;;;5077502;27;43998;-63
2022/05/31 11:59:23;;;;;;;1.63;1.00;;;20.70;54.20;;;;;;5077671;27;43481;-61
2022/05/31 12:02:02;;;;;;;2.80;1.17;;;20.70;54.20;;;;;;5049788;28;43538;-63
2022/05/31 12:04:37;;;;;;;1.30;1.20;;;20.80;54.60;;;;;;5062726;28;43554;-62
2022/05/31 12:07:13;;;;;;;1.58;0.95;;;20.80;54.70;;;;;;5066282;28;44988;-62
2022/05/31 12:09:49;;;;;;;1.17;1.08;;;20.70;54.40;;;;;;5065263;28;43513;-62
2022/05/31 12:12:36;;;;;;;2.17;0.93;;;20.70;55.10;;;;;;5063660;28;43528;-63
2022/05/31 12:15:15;;;;;;;0.97;0.93;;;20.70;54.70;;;;;;4488567;28;10001333;-63
2022/05/31 12:18:01;;;;;;;1.45;1.00;;;20.70;55.10;;;;;;5034973;28;43868;-63
2022/05/31 12:20:53;;;;;;;2.60;0.80;;;20.70;54.40;;;;;;5021939;28;43795;-63
2022/05/31 12:23:33;;;;;;;1.50;0.90;;;20.70;54.50;;;;;;5020636;28;43543;-62
2022/05/31 12:26:05;;;;;;;1.05;0.90;;;20.70;54.70;;;;;;3846275;28;10000368;-62
2022/05/31 12:28:45;;;;;;;1.13;0.90;;;20.70;54.40;;;;;;3631380;28;10045022;-62
2022/05/31 12:31:28;;;;;;;1.20;1.10;;;20.80;54.40;;;;;;5025426;28;43562;-62
2022/05/31 12:34:19;;;;;;;2.00;0.98;;;20.80;54.40;;;;;;5032373;28;44708;-62
2022/05/31 12:37:08;;;;;;;1.50;0.70;;;20.80;54.70;;;;;;5051023;28;43493;-62
2022/05/31 12:39:37;;;;;;;1.05;0.90;;;20.70;54.50;;;;;;5040312;28;43455;-62
2022/05/31 12:42:17;;;;;;;1.08;0.80;;;20.70;54.60;;;;;;5031219;28;43633;-62
2022/05/31 12:44:49;;;;;;;1.30;0.80;;;20.70;54.50;;;;;;5047539;28;45015;-62
2022/05/31 12:47:18;;;;;;;1.65;0.90;;;20.70;54.50;;;;;;5028785;28;43503;-61
2022/05/31 12:50:02;;;;;;;0.70;0.70;;;20.70;54.60;;;;;;5036963;28;43613;-62
2022/05/31 12:52:53;;;;;;;1.35;0.90;;;20.80;54.50;;;;;;5054594;28;43447;-62
2022/05/31 12:55:26;;;;;;;1.17;1.00;;;20.80;54.40;;;;;;5035271;28;44985;-62
2022/05/31 12:58:27;;;;;;;1.35;1.00;;;20.80;54.80;;;;;;5029292;28;44293;-62
2022/05/31 13:00:56;;;;;;;1.42;0.80;;;20.80;54.60;;;;;;5024332;28;43482;-62
2022/05/31 13:03:36;;;;;;;1.67;0.90;;;20.80;54.50;;;;;;5025941;28;43581;-62
2022/05/31 13:06:09;;;;;;;1.30;0.90;;;20.80;54.60;;;;;;5032429;28;44651;-62
2022/05/31 13:08:52;;;;;;;0.80;0.70;;;20.80;54.50;;;;;;5046589;28;44072;-62
2022/05/31 13:20:27;;;;;;;0.75;0.75;;;20.80;54.60;;;;;;5025176;28;43460;-62
2022/05/31 13:23:21;;;;;;;1.88;0.93;;;20.80;54.60;;;;;;5025576;28;43484;-62
2022/05/31 13:26:01;;;;;;;0.80;0.77;;;20.80;54.60;;;;;;5028533;28;43448;-61
2022/05/31 13:28:36;;;;;;;1.60;0.70;;;20.80;54.70;;;;;;5040994;28;44030;-61
2022/05/31 13:31:13;;;;;;;0.70;0.70;;;20.80;54.70;;;;;;5035184;28;43468;-62
2022/05/31 13:33:41;;;;;;;1.05;0.90;;;20.80;54.70;;;;;;5025490;28;43438;-62
2022/05/31 13:36:22;;;;;;;1.65;0.70;;;20.80;54.70;;;;;;5026341;28;43666;-62
2022/05/31 13:38:56;;;;;;;0.75;0.75;;;20.80;54.70;;;;;;5040133;28;44115;-62
2022/05/31 13:41:25;;;;;;;1.27;0.75;;;20.90;54.70;;;;;;5032758;28;44045;-62
2022/05/31 13:44:01;;;;;;;0.80;0.80;;;20.90;54.60;;;;;;5031017;28;43431;-61
2022/05/31 13:46:45;;;;;;;0.65;0.65;;;20.90;55.00;;;;;;5041438;28;43574;-61
2022/05/31 13:49:30;;;;;;;0.88;0.60;;;21.00;54.70;;;;;;5024720;28;44964;-61
2022/05/31 13:52:00;;;;;;;0.70;0.60;;;21.00;54.40;;;;;;5024656;28;43986;-63
2022/05/31 13:54:45;;;;;;;0.80;0.80;;;21.00;54.40;;;;;;5057828;28;43471;-62
2022/05/31 13:57:15;;;;;;;1.27;0.80;;;21.10;54.30;;;;;;5035057;28;43439;-61
2022/05/31 13:59:50;;;;;;;1.08;0.82;;;21.00;54.20;;;;;;5027178;28;43954;-61
2022/05/31 14:02:49;;;;;;;1.48;0.90;;;21.00;54.20;;;;;;5025714;28;43448;-61
2022/05/31 14:05:29;;;;;;;2.17;0.80;;;21.00;54.20;;;;;;5035029;28;43424;-62
2022/05/31 14:07:57;;;;;;;0.70;0.70;;;21.00;54.20;;;;;;5025740;28;43618;-62
2022/05/31 14:10:28;;;;;;;0.50;0.50;;;21.00;54.30;;;;;;5043826;28;43783;-62
2022/05/31 14:13:09;;;;;;;1.23;0.95;;;20.90;54.30;;;;;;5031622;28;43532;-61
2022/05/31 14:15:37;;;;;;;0.63;0.63;;;20.90;54.30;;;;;;5033760;28;43512;-61
2022/05/31 14:18:12;;;;;;;1.40;0.93;;;20.90;54.30;;;;;;5024623;28;44056;-62
2022/05/31 14:20:49;;;;;;;1.15;0.70;;;20.90;54.50;;;;;;5031897;28;44008;-62
2022/05/31 14:23:24;;;;;;;0.70;0.70;;;20.90;54.60;;;;;;5040264;28;43438;-61
2022/05/31 14:25:54;;;;;;;1.42;1.08;;;20.90;54.50;;;;;;5030381;28;43430;-62
2022/05/31 14:28:26;;;;;;;1.08;0.88;;;20.90;54.50;;;;;;5024927;28;43523;-62
2022/05/31 14:31:00;;;;;;;1.70;0.90;;;20.90;54.40;;;;;;5034910;28;43987;-61